createdAt,value
2017-11-09T00:00:08.124Z,40.70
2017-11-09T00:01:08.090Z,40.40
2017-11-09T00:03:00.926Z,41.50
2017-11-09T00:04:00.867Z,42.90
2017-11-09T00:05:53.669Z,42.70
2017-11-09T00:06:53.624Z,41.60
2017-11-09T00:08:46.457Z,42.60
2017-11-09T00:09:46.401Z,42.10
2017-11-09T00:11:39.207Z,41.90
2017-11-09T00:12:39.165Z,42.90
2017-11-09T00:14:32.657Z,40.20
2017-11-09T00:15:32.137Z,40.90
2017-11-09T00:17:24.962Z,41.70
2017-11-09T00:18:24.921Z,41.60
2017-11-09T00:20:17.736Z,41.30
2017-11-09T00:21:17.678Z,42.50
2017-11-09T00:23:10.499Z,42.40
2017-11-09T00:24:10.452Z,41.70
2017-11-09T00:26:03.287Z,41.00
2017-11-09T00:27:03.256Z,40.10
2017-11-09T00:28:56.031Z,42.10
2017-11-09T00:29:55.994Z,43.10
2017-11-09T00:31:48.825Z,41.30
2017-11-09T00:32:48.759Z,42.40
2017-11-09T00:34:41.579Z,42.30
2017-11-09T00:35:41.537Z,40.80
2017-11-09T00:37:34.379Z,41.00
2017-11-09T00:38:34.334Z,43.20
2017-11-09T00:40:27.136Z,40.50
2017-11-09T00:41:27.090Z,41.70
2017-11-09T00:43:19.918Z,41.50
2017-11-09T00:44:19.867Z,43.00
2017-11-09T00:46:12.694Z,42.20
2017-11-09T00:47:12.647Z,42.30
2017-11-09T00:49:05.813Z,43.10
2017-11-09T00:50:05.410Z,41.90
2017-11-09T00:51:58.214Z,43.00
2017-11-09T00:52:58.170Z,41.80
2017-11-09T00:54:51.002Z,41.00
2017-11-09T00:55:50.959Z,41.60
2017-11-09T00:57:43.769Z,42.30
2017-11-09T00:58:43.734Z,41.70
2017-11-09T01:00:36.556Z,44.20
2017-11-09T01:01:36.486Z,45.40
2017-11-09T01:03:29.308Z,42.30
2017-11-09T01:04:29.266Z,42.00
2017-11-09T01:06:22.364Z,40.70
2017-11-09T01:07:22.060Z,41.70
2017-11-09T01:09:14.873Z,41.20
2017-11-09T01:10:14.830Z,39.30
2017-11-09T01:12:07.652Z,41.20
2017-11-09T01:13:07.602Z,41.30
2017-11-09T01:15:00.411Z,42.30
2017-11-09T01:16:00.367Z,41.70
2017-11-09T01:17:53.206Z,43.60
2017-11-09T01:18:53.161Z,42.70
2017-11-09T01:20:45.968Z,41.60
2017-11-09T01:21:45.934Z,42.80
2017-11-09T01:23:38.882Z,41.50
2017-11-09T01:24:38.694Z,42.00
2017-11-09T01:26:31.505Z,42.20
2017-11-09T01:27:31.478Z,43.60
2017-11-09T01:29:24.378Z,41.50
2017-11-09T01:30:24.239Z,40.30
2017-11-09T01:32:17.062Z,43.50
2017-11-09T01:33:17.021Z,42.00
2017-11-09T01:35:09.856Z,41.60
2017-11-09T01:36:09.799Z,42.90
2017-11-09T01:38:02.614Z,41.90
2017-11-09T01:39:02.569Z,42.40
2017-11-09T01:40:56.513Z,43.20
2017-11-09T01:41:56.207Z,42.50
2017-11-09T01:43:50.004Z,42.00
2017-11-09T01:44:49.957Z,42.60
2017-11-09T01:46:42.797Z,43.10
2017-11-09T01:47:42.736Z,45.40
2017-11-09T01:49:35.553Z,41.40
2017-11-09T01:50:35.517Z,40.80
2017-11-09T01:52:28.348Z,40.70
2017-11-09T01:53:28.291Z,41.20
2017-11-09T01:55:21.128Z,41.50
2017-11-09T01:56:21.079Z,41.70
2017-11-09T01:58:14.170Z,42.70
2017-11-09T01:59:13.850Z,42.10
2017-11-09T02:01:06.660Z,42.50
2017-11-09T02:02:06.620Z,44.00
2017-11-09T02:03:59.450Z,41.80
2017-11-09T02:04:59.401Z,43.80
2017-11-09T02:06:52.811Z,41.60
2017-11-09T02:07:52.354Z,43.20
2017-11-09T02:09:45.191Z,41.00
2017-11-09T02:10:45.139Z,41.20
2017-11-09T02:12:37.957Z,40.70
2017-11-09T02:13:37.908Z,43.20
2017-11-09T02:15:30.842Z,41.30
2017-11-09T02:16:30.695Z,42.40
2017-11-09T02:18:23.506Z,42.10
2017-11-09T02:19:23.482Z,42.10
2017-11-09T02:21:16.292Z,42.10
2017-11-09T02:22:16.247Z,41.00
2017-11-09T02:24:09.051Z,42.20
2017-11-09T02:25:09.011Z,42.30
2017-11-09T02:27:01.847Z,42.60
2017-11-09T02:28:01.786Z,41.80
2017-11-09T02:29:54.597Z,42.60
2017-11-09T02:30:54.560Z,42.40
2017-11-09T02:32:47.477Z,43.40
2017-11-09T02:33:47.413Z,42.70
2017-11-09T02:35:40.224Z,43.80
2017-11-09T02:36:40.185Z,42.90
2017-11-09T02:38:33.027Z,42.50
2017-11-09T02:39:32.968Z,44.10
2017-11-09T02:41:26.777Z,43.60
2017-11-09T02:42:26.732Z,43.20
2017-11-09T02:44:19.559Z,43.70
2017-11-09T02:45:19.500Z,44.10
2017-11-09T02:47:12.322Z,45.10
2017-11-09T02:48:12.267Z,43.20
2017-11-09T02:50:05.104Z,44.30
2017-11-09T02:51:05.045Z,44.60
2017-11-09T02:52:57.854Z,44.00
2017-11-09T02:53:57.811Z,44.20
2017-11-09T02:55:50.646Z,43.00
2017-11-09T02:56:50.590Z,44.30
2017-11-09T02:58:43.451Z,42.10
2017-11-09T02:59:43.370Z,42.40
2017-11-09T03:01:36.228Z,41.80
2017-11-09T03:02:36.157Z,42.60
2017-11-09T03:04:29.074Z,42.70
2017-11-09T03:05:28.925Z,43.60
2017-11-09T03:07:22.027Z,44.20
2017-11-09T03:08:21.706Z,43.70
2017-11-09T03:10:14.524Z,43.10
2017-11-09T03:11:14.472Z,44.00
2017-11-09T03:13:07.307Z,43.80
2017-11-09T03:14:07.241Z,42.40
2017-11-09T03:16:00.075Z,42.60
2017-11-09T03:17:00.026Z,42.60
2017-11-09T03:18:52.851Z,42.70
2017-11-09T03:19:52.791Z,43.50
2017-11-09T03:21:45.609Z,42.50
2017-11-09T03:22:45.566Z,43.00
2017-11-09T03:24:38.508Z,42.90
2017-11-09T03:25:38.332Z,42.90
2017-11-09T03:27:31.167Z,42.30
2017-11-09T03:28:31.108Z,44.70
2017-11-09T03:30:23.936Z,43.60
2017-11-09T03:31:23.880Z,43.50
2017-11-09T03:33:16.706Z,43.30
2017-11-09T03:34:16.664Z,44.50
2017-11-09T03:36:09.482Z,43.00
2017-11-09T03:37:09.430Z,43.00
2017-11-09T03:39:02.257Z,43.30
2017-11-09T03:40:02.206Z,42.80
2017-11-09T03:41:55.293Z,42.60
2017-11-09T03:42:54.988Z,44.60
2017-11-09T03:44:47.809Z,43.00
2017-11-09T03:45:47.766Z,41.70
2017-11-09T03:47:40.603Z,40.90
2017-11-09T03:48:40.539Z,42.00
2017-11-09T03:50:33.380Z,41.90
2017-11-09T03:51:33.326Z,42.30
2017-11-09T03:53:26.158Z,42.40
2017-11-09T03:54:26.102Z,41.70
2017-11-09T03:56:18.944Z,42.30
2017-11-09T03:57:18.890Z,41.30
2017-11-09T03:59:11.970Z,40.20
2017-11-09T04:00:11.649Z,42.30
2017-11-09T04:02:04.469Z,41.90
2017-11-09T04:03:04.424Z,41.50
2017-11-09T04:04:57.245Z,39.30
2017-11-09T04:05:57.197Z,42.30
2017-11-09T04:07:50.020Z,42.80
2017-11-09T04:08:49.966Z,41.50
2017-11-09T04:10:42.791Z,41.50
2017-11-09T04:11:42.733Z,41.40
2017-11-09T04:13:35.576Z,40.30
2017-11-09T04:14:35.552Z,39.10
2017-11-09T04:16:28.363Z,40.20
2017-11-09T04:17:28.311Z,40.70
2017-11-09T04:18:28.254Z,39.80
2017-11-09T04:19:28.216Z,38.90
2017-11-09T04:20:28.186Z,38.70
2017-11-09T04:21:28.146Z,40.80
2017-11-09T04:22:28.100Z,40.40
2017-11-09T04:23:28.058Z,40.90
2017-11-09T04:24:28.021Z,41.20
2017-11-09T04:25:27.981Z,41.70
2017-11-09T04:26:27.943Z,39.10
2017-11-09T04:27:27.914Z,40.60
2017-11-09T04:28:27.898Z,41.40
2017-11-09T04:29:27.825Z,38.50
2017-11-09T04:30:27.788Z,42.20
2017-11-09T04:31:27.748Z,41.70
2017-11-09T04:32:27.706Z,40.90
2017-11-09T04:33:27.666Z,42.20
2017-11-09T04:34:27.723Z,38.90
2017-11-09T04:35:27.589Z,39.90
2017-11-09T04:36:27.549Z,42.00
2017-11-09T04:37:27.510Z,40.20
2017-11-09T04:38:27.488Z,40.10
2017-11-09T04:39:27.438Z,39.80
2017-11-09T04:40:27.398Z,41.10
2017-11-09T04:41:27.360Z,38.80
2017-11-09T04:42:27.322Z,38.50
2017-11-09T04:43:27.274Z,39.50
2017-11-09T04:44:27.256Z,42.00
2017-11-09T04:45:27.203Z,38.30
2017-11-09T04:46:27.161Z,39.00
2017-11-09T04:47:27.121Z,40.00
2017-11-09T04:48:27.082Z,42.10
2017-11-09T04:49:27.041Z,41.10
2017-11-09T04:50:27.034Z,40.20
2017-11-09T04:51:26.971Z,41.40
2017-11-09T04:52:26.925Z,39.20
2017-11-09T04:53:26.891Z,41.10
2017-11-09T04:54:26.846Z,39.50
2017-11-09T04:55:26.806Z,39.10
2017-11-09T04:56:26.769Z,40.10
2017-11-09T04:57:26.753Z,39.80
2017-11-09T04:58:26.689Z,41.50
2017-11-09T04:59:26.651Z,40.30
2017-11-09T05:00:26.620Z,40.00
2017-11-09T05:01:26.571Z,39.10
2017-11-09T05:02:26.533Z,37.90
2017-11-09T05:03:26.493Z,38.20
2017-11-09T05:04:26.477Z,38.20
2017-11-09T05:05:26.414Z,41.00
2017-11-09T05:06:26.380Z,40.60
2017-11-09T05:07:26.366Z,40.40
2017-11-09T05:08:26.299Z,40.10
2017-11-09T05:09:26.273Z,40.10
2017-11-09T05:10:26.232Z,39.10
2017-11-09T05:11:26.180Z,40.90
2017-11-09T05:12:26.147Z,39.10
2017-11-09T05:13:26.132Z,37.80
2017-11-09T05:14:26.065Z,37.50
2017-11-09T05:15:26.026Z,39.90
2017-11-09T05:16:25.997Z,40.80
2017-11-09T05:17:25.949Z,41.60
2017-11-09T05:18:25.919Z,40.50
2017-11-09T05:19:25.875Z,40.70
2017-11-09T05:20:25.827Z,41.10
2017-11-09T05:21:25.792Z,40.10
2017-11-09T05:22:25.751Z,39.90
2017-11-09T05:23:25.724Z,38.00
2017-11-09T05:24:25.681Z,39.40
2017-11-09T05:25:25.636Z,40.40
2017-11-09T05:26:25.598Z,42.20
2017-11-09T05:27:25.560Z,39.90
2017-11-09T05:28:25.526Z,39.10
2017-11-09T05:29:25.485Z,39.80
2017-11-09T05:30:25.442Z,38.80
2017-11-09T05:31:25.408Z,41.50
2017-11-09T05:32:25.367Z,39.70
2017-11-09T05:33:25.333Z,39.70
2017-11-09T05:34:25.317Z,38.40
2017-11-09T05:35:25.287Z,40.30
2017-11-09T05:36:25.251Z,38.80
2017-11-09T05:37:25.169Z,39.60
2017-11-09T05:38:25.156Z,40.50
2017-11-09T05:39:25.101Z,41.10
2017-11-09T05:40:25.058Z,39.80
2017-11-09T05:41:25.014Z,39.60
2017-11-09T05:42:24.983Z,39.50
2017-11-09T05:43:24.970Z,39.60
2017-11-09T05:44:24.893Z,40.20
2017-11-09T05:45:24.853Z,39.30
2017-11-09T05:46:24.831Z,40.90
2017-11-09T05:47:24.796Z,40.40
2017-11-09T05:48:24.740Z,40.60
2017-11-09T05:49:24.706Z,40.40
2017-11-09T05:50:24.695Z,38.80
2017-11-09T05:51:24.625Z,39.70
2017-11-09T05:52:24.581Z,38.70
2017-11-09T05:53:24.561Z,38.80
2017-11-09T05:54:24.520Z,37.70
2017-11-09T05:55:24.488Z,39.30
2017-11-09T05:56:24.466Z,38.60
2017-11-09T05:57:24.395Z,38.60
2017-11-09T05:58:24.356Z,37.50
2017-11-09T05:59:24.319Z,38.40
2017-11-09T06:00:24.275Z,37.80
2017-11-09T06:01:24.232Z,38.80
2017-11-09T06:02:24.195Z,38.80
2017-11-09T06:03:24.193Z,38.20
2017-11-09T06:04:24.144Z,39.00
2017-11-09T06:05:24.078Z,40.00
2017-11-09T06:06:24.045Z,39.20
2017-11-09T06:07:24.000Z,38.80
2017-11-09T06:08:23.960Z,39.80
2017-11-09T06:09:23.930Z,40.40
2017-11-09T06:10:23.883Z,40.30
2017-11-09T06:11:23.846Z,40.30
2017-11-09T06:12:23.813Z,40.30
2017-11-09T06:13:23.769Z,40.50
2017-11-09T06:14:23.731Z,41.60
2017-11-09T06:15:23.692Z,41.50
2017-11-09T06:16:23.655Z,41.70
2017-11-09T06:17:23.628Z,40.90
2017-11-09T06:18:23.576Z,39.10
2017-11-09T06:19:23.535Z,40.90
2017-11-09T06:20:23.497Z,42.00
2017-11-09T06:21:23.470Z,42.20
2017-11-09T06:22:23.436Z,39.00
2017-11-09T06:23:23.378Z,42.10
2017-11-09T06:24:23.342Z,40.60
2017-11-09T06:25:23.313Z,44.10
2017-11-09T06:26:23.266Z,39.40
2017-11-09T06:27:23.220Z,41.10
2017-11-09T06:28:23.180Z,42.20
2017-11-09T06:29:23.282Z,41.20
2017-11-09T06:30:23.105Z,40.50
2017-11-09T06:31:23.072Z,40.60
2017-11-09T06:32:23.024Z,40.40
2017-11-09T06:33:22.990Z,40.80
2017-11-09T06:34:22.949Z,42.80
2017-11-09T06:35:22.920Z,42.90
2017-11-09T06:36:22.868Z,41.20
2017-11-09T06:37:22.834Z,41.00
2017-11-09T06:38:22.797Z,40.80
2017-11-09T06:39:22.759Z,40.70
2017-11-09T06:40:22.726Z,42.20
2017-11-09T06:41:22.682Z,40.90
2017-11-09T06:42:22.634Z,41.10
2017-11-09T06:43:22.612Z,41.70
2017-11-09T06:44:22.566Z,39.70
2017-11-09T06:45:22.519Z,40.30
2017-11-09T06:46:22.486Z,39.50
2017-11-09T06:47:22.438Z,41.30
2017-11-09T06:48:22.408Z,39.00
2017-11-09T06:49:22.364Z,40.00
2017-11-09T06:50:22.339Z,39.50
2017-11-09T06:51:22.287Z,40.40
2017-11-09T06:52:22.252Z,42.80
2017-11-09T06:53:22.220Z,42.30
2017-11-09T06:54:22.170Z,40.50
2017-11-09T06:55:22.131Z,40.80
2017-11-09T06:56:22.089Z,40.10
2017-11-09T06:57:22.050Z,39.60
2017-11-09T06:58:22.013Z,39.00
2017-11-09T06:59:21.971Z,38.80
2017-11-09T07:00:21.939Z,39.10
2017-11-09T07:01:21.896Z,41.30
2017-11-09T07:02:21.858Z,38.80
2017-11-09T07:03:21.874Z,39.20
2017-11-09T07:04:21.786Z,41.60
2017-11-09T07:05:21.739Z,40.90
2017-11-09T07:06:21.718Z,39.80
2017-11-09T07:07:21.663Z,39.30
2017-11-09T07:08:21.631Z,39.60
2017-11-09T07:09:21.617Z,39.90
2017-11-09T07:10:21.543Z,40.50
2017-11-09T07:11:21.512Z,42.90
2017-11-09T07:12:21.483Z,42.00
2017-11-09T07:13:21.448Z,40.50
2017-11-09T07:14:21.394Z,39.20
2017-11-09T07:15:21.350Z,38.80
2017-11-09T07:16:21.309Z,40.40
2017-11-09T07:17:21.273Z,39.50
2017-11-09T07:18:21.230Z,40.90
2017-11-09T07:19:21.188Z,40.40
2017-11-09T07:20:21.160Z,38.30
2017-11-09T07:21:21.114Z,39.10
2017-11-09T07:22:21.076Z,41.40
2017-11-09T07:23:21.037Z,40.70
2017-11-09T07:24:21.000Z,41.60
2017-11-09T07:25:20.960Z,43.70
2017-11-09T07:26:20.940Z,41.90
2017-11-09T07:27:20.983Z,41.60
2017-11-09T07:28:20.921Z,40.50
2017-11-09T07:29:20.892Z,42.30
2017-11-09T07:30:20.883Z,43.00
2017-11-09T07:31:20.839Z,42.00
2017-11-09T07:32:20.768Z,41.00
2017-11-09T07:33:20.734Z,40.10
2017-11-09T07:34:20.708Z,41.80
2017-11-09T07:35:20.675Z,40.80
2017-11-09T07:36:20.608Z,40.20
2017-11-09T07:37:20.517Z,43.10
2017-11-09T07:38:20.557Z,41.10
2017-11-09T07:39:21.029Z,41.60
2017-11-09T07:40:20.504Z,41.80
2017-11-09T07:41:20.443Z,41.20
2017-11-09T07:42:20.390Z,42.80
2017-11-09T07:43:20.413Z,44.70
2017-11-09T07:44:20.332Z,40.60
2017-11-09T07:45:20.294Z,41.20
2017-11-09T07:46:20.247Z,41.50
2017-11-09T07:47:20.183Z,41.80
2017-11-09T07:48:20.152Z,39.60
2017-11-09T07:49:20.104Z,41.30
2017-11-09T07:50:20.066Z,40.30
2017-11-09T07:51:20.040Z,41.70
2017-11-09T07:52:19.998Z,41.50
2017-11-09T07:53:20.006Z,41.40
2017-11-09T07:54:19.919Z,38.30
2017-11-09T07:55:19.900Z,42.00
2017-11-09T07:56:19.832Z,42.50
2017-11-09T07:57:19.726Z,42.40
2017-11-09T07:58:19.687Z,40.40
2017-11-09T07:59:19.659Z,40.30
2017-11-09T08:00:19.601Z,42.50
2017-11-09T08:01:19.560Z,42.00
2017-11-09T08:02:19.520Z,39.80
2017-11-09T08:03:19.502Z,40.50
2017-11-09T08:04:19.459Z,41.50
2017-11-09T08:05:19.517Z,39.70
2017-11-09T08:06:19.386Z,41.50
2017-11-09T08:07:19.341Z,40.40
2017-11-09T08:08:19.350Z,41.00
2017-11-09T08:09:19.275Z,40.30
2017-11-09T08:10:19.241Z,38.40
2017-11-09T08:11:19.241Z,40.10
2017-11-09T08:12:19.180Z,39.90
2017-11-09T08:13:19.111Z,42.10
2017-11-09T08:14:19.073Z,38.80
2017-11-09T08:15:19.040Z,37.30
2017-11-09T08:16:18.984Z,37.60
2017-11-09T08:17:18.962Z,37.50
2017-11-09T08:18:18.910Z,38.60
2017-11-09T08:19:18.885Z,39.40
2017-11-09T08:20:18.824Z,39.40
2017-11-09T08:21:18.825Z,38.70
2017-11-09T08:22:18.810Z,38.80
2017-11-09T08:23:18.714Z,39.70
2017-11-09T08:24:18.670Z,40.40
2017-11-09T08:25:18.632Z,40.50
2017-11-09T08:26:18.605Z,40.00
2017-11-09T08:27:18.556Z,40.00
2017-11-09T08:28:18.523Z,39.80
2017-11-09T08:29:18.485Z,41.40
2017-11-09T08:30:18.449Z,40.90
2017-11-09T08:31:18.438Z,40.00
2017-11-09T08:32:18.363Z,40.20
2017-11-09T08:33:18.322Z,39.50
2017-11-09T08:34:18.304Z,40.10
2017-11-09T08:35:18.250Z,40.40
2017-11-09T08:36:18.204Z,39.30
2017-11-09T08:37:18.167Z,39.60
2017-11-09T08:38:18.133Z,39.60
2017-11-09T08:39:18.085Z,39.80
2017-11-09T08:40:18.059Z,39.90
2017-11-09T08:41:18.022Z,37.80
2017-11-09T08:42:17.972Z,39.30
2017-11-09T08:43:17.939Z,41.10
2017-11-09T08:44:17.903Z,42.40
2017-11-09T08:45:17.861Z,39.80
2017-11-09T08:46:17.817Z,41.80
2017-11-09T08:47:17.787Z,40.90
2017-11-09T08:48:17.742Z,40.10
2017-11-09T08:49:17.732Z,38.90
2017-11-09T08:50:17.662Z,38.80
2017-11-09T08:51:17.622Z,40.40
2017-11-09T08:52:17.586Z,43.40
2017-11-09T08:53:17.556Z,47.30
2017-11-09T08:54:17.510Z,43.00
2017-11-09T08:55:17.477Z,38.10
2017-11-09T08:56:17.429Z,39.90
2017-11-09T08:57:17.404Z,38.00
2017-11-09T08:58:17.354Z,40.60
2017-11-09T08:59:17.314Z,40.00
2017-11-09T09:00:17.274Z,39.60
2017-11-09T09:01:17.241Z,39.10
2017-11-09T09:02:17.255Z,38.40
2017-11-09T09:03:17.167Z,38.60
2017-11-09T09:04:17.120Z,40.30
2017-11-09T09:05:17.083Z,39.80
2017-11-09T09:06:17.048Z,41.10
2017-11-09T09:07:17.009Z,42.40
2017-11-09T09:08:16.983Z,41.60
2017-11-09T09:09:16.934Z,41.50
2017-11-09T09:10:16.911Z,40.30
2017-11-09T09:11:16.857Z,40.50
2017-11-09T09:12:16.829Z,38.80
2017-11-09T09:13:16.781Z,39.70
2017-11-09T09:14:16.736Z,39.10
2017-11-09T09:15:16.708Z,40.20
2017-11-09T09:16:16.658Z,39.50
2017-11-09T09:17:16.632Z,37.20
2017-11-09T09:18:16.600Z,40.10
2017-11-09T09:19:16.542Z,39.30
2017-11-09T09:20:16.513Z,39.20
2017-11-09T09:21:16.478Z,37.80
2017-11-09T09:22:16.435Z,36.70
2017-11-09T09:23:16.391Z,37.80
2017-11-09T09:24:16.353Z,39.00
2017-11-09T09:25:16.316Z,39.20
2017-11-09T09:26:16.277Z,42.10
2017-11-09T09:27:16.240Z,40.20
2017-11-09T09:28:16.199Z,41.50
2017-11-09T09:29:16.163Z,41.50
2017-11-09T09:30:16.124Z,40.60
2017-11-09T09:31:16.095Z,43.70
2017-11-09T09:32:16.062Z,42.30
2017-11-09T09:33:16.014Z,43.20
2017-11-09T09:34:15.976Z,39.80
2017-11-09T09:35:15.930Z,39.60
2017-11-09T09:36:15.892Z,41.50
2017-11-09T09:37:15.856Z,39.30
2017-11-09T09:38:15.818Z,41.80
2017-11-09T09:39:15.776Z,43.10
2017-11-09T09:40:15.752Z,43.20
2017-11-09T09:41:15.704Z,40.80
2017-11-09T09:42:15.664Z,39.40
2017-11-09T09:43:15.622Z,40.50
2017-11-09T09:44:15.593Z,39.70
2017-11-09T09:45:15.549Z,39.20
2017-11-09T09:46:15.522Z,38.70
2017-11-09T09:47:15.480Z,38.90
2017-11-09T09:48:15.434Z,39.10
2017-11-09T09:49:15.392Z,38.60
2017-11-09T09:50:15.359Z,39.40
2017-11-09T09:51:15.322Z,40.70
2017-11-09T09:52:15.294Z,40.80
2017-11-09T09:53:15.239Z,40.90
2017-11-09T09:54:15.206Z,40.20
2017-11-09T09:55:15.165Z,39.70
2017-11-09T09:56:15.128Z,41.10
2017-11-09T09:57:15.091Z,39.90
2017-11-09T09:58:15.050Z,41.20
2017-11-09T09:59:15.018Z,39.50
2017-11-09T10:00:14.970Z,41.30
2017-11-09T10:01:14.934Z,40.50
2017-11-09T10:02:14.906Z,40.50
2017-11-09T10:03:14.857Z,39.20
2017-11-09T10:04:14.820Z,39.40
2017-11-09T10:05:14.778Z,41.60
2017-11-09T10:06:14.743Z,42.60
2017-11-09T10:07:14.707Z,40.60
2017-11-09T10:08:14.680Z,38.50
2017-11-09T10:09:14.632Z,41.70
2017-11-09T10:10:14.588Z,44.60
2017-11-09T10:11:14.554Z,40.00
2017-11-09T10:12:14.511Z,38.40
2017-11-09T10:13:14.491Z,40.60
2017-11-09T10:14:14.448Z,42.40
2017-11-09T10:15:14.396Z,41.80
2017-11-09T10:16:14.370Z,39.00
2017-11-09T10:17:14.336Z,38.80
2017-11-09T10:18:14.291Z,39.70
2017-11-09T10:19:14.251Z,40.50
2017-11-09T10:20:14.211Z,38.50
2017-11-09T10:21:14.182Z,37.10
2017-11-09T10:22:14.129Z,35.90
2017-11-09T10:23:14.094Z,37.00
2017-11-09T10:24:14.051Z,35.70
2017-11-09T10:25:14.021Z,35.60
2017-11-09T10:26:13.974Z,37.50
2017-11-09T10:27:13.950Z,37.30
2017-11-09T10:28:13.904Z,37.10
2017-11-09T10:29:13.877Z,35.40
2017-11-09T10:30:13.831Z,36.40
2017-11-09T10:31:13.795Z,37.60
2017-11-09T10:32:13.797Z,37.50
2017-11-09T10:33:13.707Z,36.40
2017-11-09T10:34:13.672Z,37.80
2017-11-09T10:35:13.629Z,35.80
2017-11-09T10:36:13.608Z,37.60
2017-11-09T10:37:13.551Z,35.30
2017-11-09T10:38:13.517Z,34.40
2017-11-09T10:39:13.475Z,35.00
2017-11-09T10:40:13.454Z,34.80
2017-11-09T10:41:13.410Z,36.40
2017-11-09T10:42:13.372Z,35.70
2017-11-09T10:43:13.324Z,34.80
2017-11-09T10:44:13.287Z,37.30
2017-11-09T10:45:13.248Z,36.40
2017-11-09T10:46:13.205Z,38.40
2017-11-09T10:47:13.178Z,38.10
2017-11-09T10:48:13.138Z,39.60
2017-11-09T10:49:13.095Z,38.70
2017-11-09T10:50:13.072Z,36.80
2017-11-09T10:51:13.018Z,37.50
2017-11-09T10:52:12.998Z,40.00
2017-11-09T10:53:13.005Z,39.10
2017-11-09T10:54:12.910Z,36.80
2017-11-09T10:55:12.860Z,35.50
2017-11-09T10:56:12.824Z,35.90
2017-11-09T10:57:12.784Z,37.10
2017-11-09T10:58:12.747Z,36.40
2017-11-09T10:59:12.708Z,34.50
2017-11-09T11:00:12.677Z,35.70
2017-11-09T11:01:12.631Z,37.40
2017-11-09T11:02:12.598Z,36.20
2017-11-09T11:03:14.502Z,37.40
2017-11-09T11:04:12.519Z,36.70
2017-11-09T11:05:12.495Z,34.90
2017-11-09T11:06:12.449Z,35.60
2017-11-09T11:07:12.401Z,34.70
2017-11-09T11:08:12.368Z,34.50
2017-11-09T11:09:12.327Z,36.40
2017-11-09T11:10:12.285Z,36.20
2017-11-09T11:11:12.248Z,36.40
2017-11-09T11:12:12.214Z,36.20
2017-11-09T11:13:12.252Z,37.90
2017-11-09T11:14:12.143Z,39.20
2017-11-09T11:15:12.094Z,37.10
2017-11-09T11:16:12.073Z,37.10
2017-11-09T11:17:12.025Z,36.60
2017-11-09T11:18:11.980Z,36.40
2017-11-09T11:19:11.944Z,36.10
2017-11-09T11:20:11.901Z,37.50
2017-11-09T11:21:11.866Z,36.40
2017-11-09T11:22:11.828Z,35.60
2017-11-09T11:23:11.797Z,37.80
2017-11-09T11:24:11.766Z,40.90
2017-11-09T11:25:11.709Z,38.30
2017-11-09T11:26:11.675Z,38.30
2017-11-09T11:27:11.634Z,39.00
2017-11-09T11:28:11.597Z,39.20
2017-11-09T11:29:11.554Z,39.50
2017-11-09T11:30:11.522Z,40.40
2017-11-09T11:31:11.477Z,39.00
2017-11-09T11:32:11.440Z,40.60
2017-11-09T11:33:11.408Z,41.80
2017-11-09T11:34:11.377Z,39.70
2017-11-09T11:35:11.324Z,42.30
2017-11-09T11:36:11.295Z,42.80
2017-11-09T11:37:11.248Z,40.90
2017-11-09T11:38:11.208Z,41.90
2017-11-09T11:39:11.171Z,44.00
2017-11-09T11:40:11.141Z,42.90
2017-11-09T11:41:11.089Z,42.00
2017-11-09T11:42:11.157Z,43.20
2017-11-09T11:43:11.023Z,41.60
2017-11-09T11:44:10.985Z,41.90
2017-11-09T11:45:10.948Z,46.90
2017-11-09T11:46:10.906Z,44.70
2017-11-09T11:47:10.861Z,41.50
2017-11-09T11:48:10.822Z,41.40
2017-11-09T11:49:10.787Z,43.40
2017-11-09T11:50:10.748Z,39.80
2017-11-09T11:51:10.713Z,40.50
2017-11-09T11:52:10.684Z,39.80
2017-11-09T11:53:10.656Z,40.60
2017-11-09T11:54:10.597Z,41.90
2017-11-09T11:55:10.559Z,42.60
2017-11-09T11:56:10.515Z,42.50
2017-11-09T11:57:10.492Z,44.40
2017-11-09T11:58:10.444Z,42.00
2017-11-09T11:59:10.404Z,42.50
2017-11-09T12:00:10.362Z,43.10
2017-11-09T12:01:10.323Z,42.80
2017-11-09T12:02:10.293Z,44.30
2017-11-09T12:03:10.249Z,44.80
2017-11-09T12:04:10.211Z,41.60
2017-11-09T12:05:10.176Z,42.50
2017-11-09T12:06:10.146Z,43.10
2017-11-09T12:07:10.118Z,42.00
2017-11-09T12:08:10.058Z,42.00
2017-11-09T12:09:10.017Z,42.40
2017-11-09T12:10:09.978Z,42.30
2017-11-09T12:11:09.950Z,41.40
2017-11-09T12:12:09.902Z,40.90
2017-11-09T12:13:09.864Z,40.10
2017-11-09T12:14:09.851Z,41.30
2017-11-09T12:15:09.805Z,41.00
2017-11-09T12:16:09.748Z,40.50
2017-11-09T12:17:09.711Z,40.20
2017-11-09T12:18:09.682Z,41.00
2017-11-09T12:19:09.640Z,40.70
2017-11-09T12:20:09.599Z,41.90
2017-11-09T12:21:09.566Z,41.50
2017-11-09T12:22:09.527Z,40.50
2017-11-09T12:23:09.498Z,41.60
2017-11-09T12:24:09.443Z,42.30
2017-11-09T12:25:09.404Z,41.60
2017-11-09T12:26:09.366Z,45.90
2017-11-09T12:27:09.328Z,43.50
2017-11-09T12:28:09.290Z,43.00
2017-11-09T12:29:09.253Z,41.00
2017-11-09T12:30:09.214Z,41.20
2017-11-09T12:31:09.181Z,42.30
2017-11-09T12:32:09.136Z,41.60
2017-11-09T12:33:09.112Z,42.20
2017-11-09T12:34:09.059Z,42.20
2017-11-09T12:35:09.021Z,43.60
2017-11-09T12:36:08.987Z,43.00
2017-11-09T12:37:08.947Z,43.00
2017-11-09T12:38:08.906Z,43.00
2017-11-09T12:39:08.871Z,44.50
2017-11-09T12:40:08.844Z,43.00
2017-11-09T12:41:08.798Z,41.60
2017-11-09T12:42:08.757Z,41.40
2017-11-09T12:43:08.719Z,44.00
2017-11-09T12:44:08.681Z,42.00
2017-11-09T12:45:08.666Z,42.50
2017-11-09T12:46:08.624Z,41.40
2017-11-09T12:47:08.558Z,41.30
2017-11-09T12:48:08.537Z,41.50
2017-11-09T12:49:08.489Z,41.90
2017-11-09T12:50:08.455Z,40.60
2017-11-09T12:51:08.406Z,39.50
2017-11-09T12:52:09.030Z,40.00
2017-11-09T12:53:08.337Z,40.90
2017-11-09T12:54:08.333Z,40.00
2017-11-09T12:55:08.252Z,41.50
2017-11-09T12:56:08.214Z,40.60
2017-11-09T12:57:08.181Z,40.80
2017-11-09T12:58:08.137Z,41.60
2017-11-09T12:59:08.123Z,39.90
2017-11-09T13:00:08.075Z,40.80
2017-11-09T13:01:08.024Z,41.30
2017-11-09T13:02:07.997Z,43.40
2017-11-09T13:03:07.960Z,42.70
2017-11-09T13:04:07.920Z,45.70
2017-11-09T13:05:07.884Z,42.70
2017-11-09T13:06:07.879Z,42.90
2017-11-09T13:07:07.791Z,45.40
2017-11-09T13:08:07.754Z,44.20
2017-11-09T13:09:07.716Z,43.80
2017-11-09T13:10:07.687Z,42.60
2017-11-09T13:11:07.670Z,42.90
2017-11-09T13:12:07.600Z,42.40
2017-11-09T13:13:07.609Z,46.00
2017-11-09T13:14:07.534Z,43.60
2017-11-09T13:15:07.500Z,43.80
2017-11-09T13:16:07.504Z,42.50
2017-11-09T13:17:07.498Z,43.30
2017-11-09T13:18:07.393Z,42.30
2017-11-09T13:19:07.357Z,41.50
2017-11-09T13:20:07.295Z,42.70
2017-11-09T13:21:07.266Z,42.00
2017-11-09T13:22:07.255Z,42.80
2017-11-09T13:23:07.189Z,43.00
2017-11-09T13:24:07.162Z,41.50
2017-11-09T13:25:07.121Z,45.20
2017-11-09T13:26:07.090Z,40.80
2017-11-09T13:27:07.060Z,40.80
2017-11-09T13:28:07.099Z,42.60
2017-11-09T13:29:06.958Z,41.20
2017-11-09T13:30:06.946Z,40.60
2017-11-09T13:31:06.892Z,38.80
2017-11-09T13:32:06.913Z,38.30
2017-11-09T13:33:06.804Z,40.10
2017-11-09T13:34:06.771Z,40.70
2017-11-09T13:35:06.741Z,41.30
2017-11-09T13:36:06.686Z,40.80
2017-11-09T13:37:06.650Z,41.30
2017-11-09T13:38:06.605Z,41.90
2017-11-09T13:39:06.567Z,41.60
2017-11-09T13:40:06.529Z,40.60
2017-11-09T13:41:06.491Z,40.80
2017-11-09T13:42:06.465Z,40.40
2017-11-09T13:43:06.416Z,41.10
2017-11-09T13:44:06.386Z,43.30
2017-11-09T13:45:06.345Z,39.90
2017-11-09T13:46:06.314Z,41.70
2017-11-09T13:47:06.261Z,42.10
2017-11-09T13:48:06.221Z,42.60
2017-11-09T13:49:06.188Z,41.10
2017-11-09T13:50:06.146Z,40.30
2017-11-09T13:51:06.109Z,40.70
2017-11-09T13:52:06.082Z,44.50
2017-11-09T13:53:06.035Z,42.40
2017-11-09T13:54:05.997Z,42.10
2017-11-09T13:55:05.957Z,42.50
2017-11-09T13:56:05.923Z,42.20
2017-11-09T13:57:05.878Z,44.50
2017-11-09T13:58:05.848Z,43.60
2017-11-09T13:59:05.821Z,41.20
2017-11-09T14:00:05.769Z,40.80
2017-11-09T14:01:05.728Z,42.60
2017-11-09T14:02:05.689Z,39.40
2017-11-09T14:03:05.648Z,42.60
2017-11-09T14:04:05.609Z,42.60
2017-11-09T14:05:05.573Z,40.50
2017-11-09T14:06:05.539Z,42.40
2017-11-09T14:07:05.522Z,42.90
2017-11-09T14:08:05.458Z,43.20
2017-11-09T14:09:05.419Z,40.80
2017-11-09T14:10:05.384Z,39.90